Time;durP1;ratioP1;P1;durP2;ratioP2;P2;SDS_P1;SDS_P2;PMS_P1;PMS_P2;Temp;Humidity;BMP_temperature;BMP_pressure;BME280_temperature;BME280_humidity;BME280_pressure;Samples;Min_cycle;Max_cycle;Signal;HPM_P1;HPM_P2
2023/02/24 00:02:08;;;;;;;56.20;20.50;;;;;;;3.07;78.04;99069.52;105356;1284;5884568;-86
2023/02/24 00:04:55;;;;;;;55.40;21.90;;;;;;;3.02;78.35;99064.02;109809;1284;22561;-89
2023/02/24 00:07:36;;;;;;;53.30;21.10;;;;;;;2.98;79.24;99064.52;109728;1283;22788;-82
2023/02/24 00:10:25;;;;;;;54.60;21.10;;;;;;;2.97;79.19;99060.40;109621;1284;23113;-81
2023/02/24 00:13:04;;;;;;;59.30;20.80;;;;;;;2.96;79.78;99059.38;109755;1283;22261;-83
2023/02/24 00:16:00;;;;;;;59.50;22.50;;;;;;;2.95;78.91;99052.52;109753;1283;22561;-83
2023/02/24 00:18:38;;;;;;;59.60;22.00;;;;;;;2.90;79.27;99054.89;109756;1276;22803;-81
2023/02/24 00:21:24;;;;;;;65.10;22.70;;;;;;;2.88;79.97;99051.79;109836;1278;23747;-88
2023/02/24 00:24:06;;;;;;;56.80;22.30;;;;;;;2.87;78.39;99049.21;109766;1283;23219;-83
2023/02/24 00:26:39;;;;;;;67.60;23.60;;;;;;;2.81;77.84;99049.53;109658;1284;22596;-86
2023/02/24 00:29:33;;;;;;;73.50;27.20;;;;;;;2.79;78.67;99048.83;109829;1283;22559;-85
2023/02/24 00:32:17;;;;;;;82.40;29.10;;;;;;;2.78;79.64;99037.70;109722;1283;22573;-86
2023/02/24 00:35:05;;;;;;;62.70;25.80;;;;;;;2.79;81.11;99038.56;109716;1283;22613;-88
2023/02/24 00:37:41;;;;;;;58.40;22.60;;;;;;;2.79;80.05;99031.55;109760;1283;23997;-85
2023/02/24 00:40:22;;;;;;;48.80;19.50;;;;;;;2.78;79.11;99027.94;109712;1283;22091;-87
2023/02/24 00:43:08;;;;;;;58.70;20.40;;;;;;;2.76;75.95;99025.55;109792;1279;22613;-83
2023/02/24 00:45:50;;;;;;;58.90;18.40;;;;;;;2.77;78.44;99024.69;109748;1283;22670;-85
2023/02/24 00:48:27;;;;;;;51.40;19.80;;;;;;;2.81;78.87;99018.89;109590;1284;22177;-85
2023/02/24 00:51:06;;;;;;;54.80;18.60;;;;;;;2.85;79.03;99017.71;109582;1284;22521;-85
2023/02/24 00:53:41;;;;;;;57.20;20.60;;;;;;;2.89;78.99;99018.58;109634;1284;22830;-86
2023/02/24 00:56:18;;;;;;;;;;;;;;;2.94;79.55;99017.92;109642;1284;22531;-84
2023/02/24 00:58:52;;;;;;;50.50;19.40;;;;;;;3.00;80.23;99013.34;109799;1283;22532;-84
2023/02/24 01:01:31;;;;;;;44.70;19.10;;;;;;;3.06;80.10;99005.81;109819;1283;22762;-82
2023/02/24 01:04:07;;;;;;;42.40;18.80;;;;;;;3.09;80.09;99000.52;109530;1283;22499;-82
2023/02/24 01:06:45;;;;;;;46.90;18.80;;;;;;;3.11;80.00;98999.33;109406;1283;23396;-79
2023/02/24 01:09:18;;;;;;;37.90;17.50;;;;;;;3.14;80.52;98993.87;109533;1284;22548;-82
2023/02/24 01:14:51;;;;;;;41.00;16.90;;;;;;;3.24;80.08;98986.86;109565;1284;22566;-86
2023/02/24 01:17:24;;;;;;;44.00;18.00;;;;;;;3.25;79.69;98983.45;109652;1283;22565;-86
2023/02/24 01:20:14;;;;;;;42.60;17.80;;;;;;;3.25;78.29;98985.66;109736;1283;23338;-87
2023/02/24 01:22:56;;;;;;;41.20;17.60;;;;;;;3.12;78.50;98984.95;109759;1283;22677;-88
2023/02/24 01:25:27;;;;;;;43.70;19.40;;;;;;;3.05;77.48;98984.92;109749;1284;22555;-87
2023/02/24 01:28:02;;;;;;;48.60;18.80;;;;;;;2.97;79.71;98987.30;109680;1284;22566;-81
2023/02/24 01:30:34;;;;;;;42.50;18.80;;;;;;;2.94;79.23;98981.13;109777;1283;22562;-82
2023/02/24 01:33:06;;;;;;;50.80;19.00;;;;;;;2.88;79.41;98984.85;109671;1284;22571;-84
2023/02/24 01:35:41;;;;;;;47.70;19.00;;;;;;;2.82;80.65;98981.07;109695;1283;22545;-85
2023/02/24 01:38:17;;;;;;;43.10;18.60;;;;;;;2.78;80.96;98975.40;109710;1281;22553;-86
2023/02/24 01:40:58;;;;;;;40.30;18.40;;;;;;;2.74;81.01;98968.20;109693;1284;22381;-83
2023/02/24 01:43:39;;;;;;;43.60;18.10;;;;;;;2.67;81.13;98970.05;109629;1283;22295;-83
2023/02/24 01:46:12;;;;;;;39.60;17.80;;;;;;;2.61;80.19;98966.93;109687;1283;23397;-84
2023/02/24 01:48:54;;;;;;;44.40;18.40;;;;;;;2.54;80.58;98970.67;109706;1283;22579;-87
2023/02/24 01:51:33;;;;;;;40.60;18.60;;;;;;;2.48;81.48;98966.36;109717;1284;23040;-85
2023/02/24 01:54:11;;;;;;;41.60;18.90;;;;;;;2.44;80.48;98967.02;109790;1284;23159;-82
2023/02/24 01:56:47;;;;;;;38.80;17.30;;;;;;;2.40;81.25;98963.58;109676;1283;22572;-84
2023/02/24 01:59:20;;;;;;;41.00;17.80;;;;;;;2.38;82.67;98966.65;109748;1283;22095;-85
2023/02/24 02:01:54;;;;;;;41.50;18.80;;;;;;;2.39;82.94;98965.64;109687;1283;23174;-85
2023/02/24 02:04:39;;;;;;;44.70;19.20;;;;;;;2.38;81.83;98969.73;109707;1283;22952;-88
2023/02/24 02:07:16;;;;;;;42.30;16.80;;;;;;;2.36;81.03;98966.30;109790;1283;23000;-88
2023/02/24 02:09:52;;;;;;;42.00;17.80;;;;;;;2.33;80.62;98964.23;109674;1284;22593;-87
2023/02/24 02:12:25;;;;;;;50.40;18.80;;;;;;;2.31;82.53;98963.88;109681;1283;22567;-83
2023/02/24 02:14:59;;;;;;;43.10;16.40;;;;;;;2.30;79.83;98970.36;109601;1283;22627;-83
2023/02/24 02:17:56;;;;;;;50.50;19.00;;;;;;;2.28;82.01;98970.00;109604;1276;22555;-81
2023/02/24 02:21:01;;;;;;;47.60;18.50;;;;;;;2.30;81.37;98970.87;109605;1283;23318;-81
2023/02/24 02:23:47;;;;;;;;;;;;;;;2.33;82.71;98970.05;109668;1285;22577;-87
2023/02/24 02:26:43;;;;;;;51.80;17.30;;;;;;;2.36;83.10;98968.52;109631;1283;22563;-83
2023/02/24 02:29:47;;;;;;;39.00;16.10;;;;;;;2.40;83.20;98965.97;109718;1283;22558;-84
2023/02/24 02:32:50;;;;;;;40.80;16.20;;;;;;;2.42;81.03;98961.55;109757;1283;22362;-83
2023/02/24 02:35:59;;;;;;;47.00;16.80;;;;;;;2.41;80.22;98963.06;109716;1284;22527;-82
2023/02/24 02:38:58;;;;;;;33.80;14.20;;;;;;;2.41;80.92;98956.40;109712;1281;22567;-85
2023/02/24 02:41:55;;;;;;;39.30;15.90;;;;;;;2.47;81.86;98953.88;109706;1279;22722;-82
2023/02/24 02:44:38;;;;;;;42.30;17.10;;;;;;;2.54;81.99;98954.41;109574;1283;22063;-84
2023/02/24 02:47:37;;;;;;;43.90;17.80;;;;;;;2.57;81.07;98954.09;109716;1283;22580;-80
2023/02/24 02:50:47;;;;;;;43.10;18.40;;;;;;;2.51;80.37;98952.17;109631;1278;22489;-82
2023/02/24 02:53:51;;;;;;;46.10;18.00;;;;;;;2.43;81.02;98945.80;109609;1284;22570;-87
2023/02/24 02:56:53;;;;;;;44.80;19.00;;;;;;;2.42;81.40;98945.46;109593;1283;23448;-84
2023/02/24 02:59:38;;;;;;;62.50;22.70;;;;;;;2.42;81.83;98939.81;109654;1284;22913;-84
2023/02/24 03:02:27;;;;;;;64.70;25.30;;;;;;;2.43;81.51;98937.77;109647;1283;22569;-86
2023/02/24 03:05:08;;;;;;;67.60;22.80;;;;;;;2.41;81.55;98931.59;109623;1283;22708;-81
2023/02/24 03:07:48;;;;;;;53.20;22.80;;;;;;;2.38;81.92;98934.15;109743;1283;22256;-84
2023/02/24 03:10:33;;;;;;;52.40;20.40;;;;;;;2.37;82.30;98930.55;109677;1283;22549;-86
2023/02/24 03:13:13;;;;;;;47.60;19.40;;;;;;;2.36;81.06;98927.82;109729;1283;22376;-83
2023/02/24 03:16:02;;;;;;;43.60;17.50;;;;;;;2.30;80.92;98924.02;109675;1283;23680;-91
2023/02/24 03:18:47;;;;;;;43.70;17.40;;;;;;;2.25;81.58;98924.48;109750;1279;22103;-85
2023/02/24 03:21:48;;;;;;;38.50;16.30;;;;;;;2.23;82.69;98923.63;109653;1283;22792;-83
2023/02/24 03:24:20;;;;;;;41.80;16.50;;;;;;;2.22;81.32;98927.55;109728;1283;23823;-87
2023/02/24 03:27:08;;;;;;;;;;;;;;;2.17;80.93;98927.88;109701;1283;22611;-84
2023/02/24 03:29:57;;;;;;;45.90;16.60;;;;;;;2.14;82.03;98925.46;109775;1279;22234;-89
2023/02/24 03:32:49;;;;;;;48.70;17.90;;;;;;;2.14;82.97;98919.48;109688;1283;23762;-83
2023/02/24 03:35:42;;;;;;;37.60;17.00;;;;;;;2.15;83.06;98921.88;109664;1283;22747;-85
2023/02/24 03:38:25;;;;;;;43.60;16.30;;;;;;;2.14;82.79;98920.34;109712;1282;22587;-85
2023/02/24 03:41:09;;;;;;;46.30;18.00;;;;;;;2.14;82.93;98919.65;109673;1283;22715;-80
2023/02/24 03:43:57;;;;;;;57.00;18.00;;;;;;;2.13;82.86;98923.05;109772;1283;22582;-84
2023/02/24 03:46:39;;;;;;;63.90;17.70;;;;;;;2.10;82.89;98916.55;109685;1283;22611;-89
2023/02/24 03:49:20;;;;;;;51.70;17.70;;;;;;;2.08;82.57;98917.40;109645;1275;23435;-90
2023/02/24 03:52:55;;;;;;;46.20;19.30;;;;;;;2.03;81.24;98918.04;109786;1279;24250;-87
2023/02/24 03:56:25;;;;;;;50.80;16.30;;;;;;;1.97;82.45;98918.53;109609;1285;22619;-88
2023/02/24 03:59:26;;;;;;;40.90;16.30;;;;;;;1.95;82.61;98918.85;109715;1283;22296;-82
2023/02/24 04:03:01;;;;;;;41.50;15.20;;;;;;;1.95;82.14;98913.55;109664;1284;24850;-82
2023/02/24 04:06:32;;;;;;;40.70;14.00;;;;;;;1.94;82.08;98908.92;109286;1289;22772;-85
2023/02/24 04:09:28;;;;;;;44.10;14.80;;;;;;;1.96;81.87;98903.30;109387;1284;22650;-83
2023/02/24 04:12:41;;;;;;;37.90;13.80;;;;;;;1.98;81.91;98904.52;109612;1283;22999;-82
2023/02/24 04:15:52;;;;;;;39.10;15.30;;;;;;;2.04;82.35;98902.33;109649;1283;24898;-88
2023/02/24 04:18:56;;;;;;;37.60;14.10;;;;;;;2.09;82.15;98899.11;109605;1284;22691;-80
2023/02/24 04:21:37;;;;;;;33.30;14.30;;;;;;;2.14;82.03;98896.05;109570;1283;24531;-82
2023/02/24 04:24:14;;;;;;;40.60;16.90;;;;;;;2.18;81.91;98893.33;109439;1283;22213;-84
2023/02/24 04:27:08;;;;;;;39.00;16.20;;;;;;;2.19;81.90;98887.88;109358;1283;22616;-83
2023/02/24 04:29:48;;;;;;;48.70;16.80;;;;;;;2.21;81.74;98886.86;109341;1281;23159;-81
2023/02/24 04:32:30;;;;;;;45.00;16.60;;;;;;;2.19;82.05;98886.67;109414;1283;23814;-84
2023/02/24 04:35:18;;;;;;;39.80;16.50;;;;;;;2.17;82.03;98883.42;109628;1285;22549;-85
2023/02/24 04:37:53;;;;;;;41.30;16.20;;;;;;;2.17;82.01;98885.13;109680;1285;22548;-83
2023/02/24 04:40:28;;;;;;;41.70;17.00;;;;;;;2.13;81.22;98884.92;109635;1283;22307;-82
2023/02/24 04:42:59;;;;;;;44.30;15.80;;;;;;;2.03;80.79;98884.02;109692;1283;22623;-84
2023/02/24 04:45:30;;;;;;;37.00;15.10;;;;;;;1.98;81.99;98882.13;109741;1283;22478;-88
2023/02/24 04:48:07;;;;;;;41.60;16.70;;;;;;;1.98;82.08;98878.01;109687;1264;23426;-82
2023/02/24 04:50:38;;;;;;;40.70;16.00;;;;;;;1.93;80.38;98877.98;109615;1283;22180;-85
2023/02/24 04:53:20;;;;;;;40.80;16.40;;;;;;;1.89;81.25;98879.83;109678;1282;22979;-82
2023/02/24 04:56:06;;;;;;;39.90;16.90;;;;;;;1.86;81.70;98878.79;109692;1283;23335;-89
2023/02/24 04:58:42;;;;;;;44.70;16.20;;;;;;;1.85;82.76;98878.95;109736;1284;22547;-81
2023/02/24 05:01:11;;;;;;;41.70;17.00;;;;;;;1.83;82.87;98876.73;109795;1285;22587;-83
2023/02/24 05:03:45;;;;;;;44.80;16.30;;;;;;;1.85;83.07;98878.77;109725;1279;23902;-87
2023/02/24 05:06:24;;;;;;;41.20;15.30;;;;;;;1.87;83.20;98879.98;109756;1282;22946;-81
2023/02/24 05:09:13;;;;;;;39.10;16.90;;;;;;;1.89;83.24;98882.58;109685;1283;22584;-85
2023/02/24 05:11:54;;;;;;;36.90;16.20;;;;;;;1.91;83.39;98879.33;109744;1283;22550;-83
2023/02/24 05:14:28;;;;;;;43.60;16.60;;;;;;;1.91;81.51;98883.95;109734;1284;24261;-84
2023/02/24 05:16:59;;;;;;;48.20;17.20;;;;;;;1.89;81.22;98884.62;109783;1284;23744;-84
2023/02/24 05:22:30;;;;;;;46.60;17.30;;;;;;;1.93;82.09;98883.29;109751;1284;22361;-86
2023/02/24 05:25:08;;;;;;;42.70;17.20;;;;;;;1.91;81.41;98878.66;109762;1284;22797;-88
2023/02/24 05:27:41;;;;;;;47.10;20.60;;;;;;;1.90;79.65;98874.02;109720;1283;22676;-84
2023/02/24 05:30:19;;;;;;;45.60;18.90;;;;;;;1.87;81.15;98875.02;109786;1283;25967;-84
2023/02/24 05:32:56;;;;;;;41.70;16.00;;;;;;;1.88;82.31;98878.98;109795;1280;22281;-83
2023/02/24 05:35:42;;;;;;;37.70;15.90;;;;;;;1.89;80.79;98883.92;109708;1261;22620;-82
2023/02/24 05:38:21;;;;;;;38.60;17.30;;;;;;;1.90;82.55;98888.56;109744;1281;23752;-83
2023/02/24 05:41:03;;;;;;;42.10;16.10;;;;;;;1.97;82.25;98885.36;109667;1282;22479;-83
2023/02/24 05:43:43;;;;;;;42.20;15.50;;;;;;;2.02;82.15;98891.02;109724;1282;22592;-86
2023/02/24 05:46:15;;;;;;;43.90;15.80;;;;;;;2.09;82.31;98888.84;109669;1275;22640;-89
2023/02/24 05:48:52;;;;;;;37.80;14.80;;;;;;;2.16;82.36;98890.77;109712;1282;22115;-82
2023/02/24 05:51:35;;;;;;;47.20;14.90;;;;;;;2.25;82.48;98887.90;109794;1283;22555;-82
2023/02/24 05:54:13;;;;;;;35.60;13.70;;;;;;;2.30;81.98;98888.45;109647;1280;22758;-85
2023/02/24 05:56:45;;;;;;;48.90;15.10;;;;;;;2.36;82.47;98884.88;109619;1282;22568;-83
2023/02/24 05:59:22;;;;;;;41.30;16.00;;;;;;;2.47;82.46;98885.62;109551;1282;24189;-83
2023/02/24 06:01:53;;;;;;;42.30;17.90;;;;;;;2.54;82.35;98882.90;109245;1278;22567;-82
2023/02/24 06:07:21;;;;;;;43.30;18.10;;;;;;;2.79;82.31;98880.92;109616;1282;25447;-81
2023/02/24 06:10:00;;;;;;;50.80;18.10;;;;;;;2.91;82.22;98879.07;109583;1276;23929;-82
2023/02/24 06:12:34;;;;;;;55.30;19.20;;;;;;;3.02;81.95;98876.02;109618;1282;23777;-88
2023/02/24 06:15:06;;;;;;;61.30;23.90;;;;;;;3.07;81.75;98878.25;109647;1280;22585;-86
2023/02/24 06:17:41;;;;;;;44.70;21.10;;;;;;;3.11;81.70;98876.36;109722;1282;22556;-86
2023/02/24 06:20:16;;;;;;;43.90;18.60;;;;;;;3.12;81.66;98872.77;109801;1281;23850;-84
2023/02/24 06:22:53;;;;;;;66.30;23.10;;;;;;;3.16;81.81;98878.44;109694;1275;22392;-84
2023/02/24 06:25:25;;;;;;;66.40;22.90;;;;;;;3.19;81.52;98879.28;109846;1282;22918;-85
2023/02/24 06:27:58;;;;;;;65.20;24.10;;;;;;;3.22;81.25;98874.49;109806;1281;23901;-89
2023/02/24 06:30:33;;;;;;;66.10;25.20;;;;;;;3.24;81.14;98872.27;109829;1282;22463;-86
2023/02/24 06:33:05;;;;;;;67.80;24.10;;;;;;;3.28;81.09;98871.42;109848;1278;22541;-87
2023/02/24 06:35:40;;;;;;;50.50;21.10;;;;;;;3.32;80.84;98873.83;109785;1283;22564;-83
2023/02/24 06:38:20;;;;;;;42.10;18.00;;;;;;;3.34;80.49;98871.94;109704;1283;22864;-81
2023/02/24 06:41:09;;;;;;;42.80;16.10;;;;;;;3.36;80.41;98867.66;109789;1284;23389;-87
2023/02/24 06:43:42;;;;;;;42.50;18.00;;;;;;;3.39;80.18;98869.20;109709;1279;22118;-85
2023/02/24 06:46:18;;;;;;;43.00;18.40;;;;;;;3.41;79.77;98867.13;109503;1284;22794;-83
2023/02/24 06:48:52;;;;;;;48.20;19.20;;;;;;;3.40;79.68;98864.57;109577;1284;22578;-82
2023/02/24 06:51:30;;;;;;;56.00;20.30;;;;;;;3.41;79.71;98862.86;109745;1276;22570;-89
2023/02/24 06:54:15;;;;;;;49.90;18.70;;;;;;;3.42;79.28;98860.46;109849;1283;22571;-83
2023/02/24 06:56:56;;;;;;;46.30;19.40;;;;;;;3.44;79.73;98856.52;109639;1283;22726;-83
2023/02/24 06:59:33;;;;;;;41.10;18.30;;;;;;;3.47;79.57;98854.64;108925;1280;22559;-82
2023/02/24 07:02:02;;;;;;;40.20;17.20;;;;;;;3.50;79.72;98851.02;108875;1280;22665;-86
2023/02/24 07:04:42;;;;;;;41.30;17.20;;;;;;;3.55;79.52;98850.00;109181;1278;22990;-80
2023/02/24 07:07:19;;;;;;;50.80;17.50;;;;;;;3.61;79.79;98846.23;109441;1262;23063;-86
2023/02/24 07:10:03;;;;;;;40.80;18.00;;;;;;;3.67;79.65;98838.85;109525;1280;22552;-82
2023/02/24 07:12:43;;;;;;;44.60;18.30;;;;;;;3.74;79.37;98837.98;109467;1283;22551;-82
2023/02/24 07:15:24;;;;;;;39.70;17.50;;;;;;;3.77;79.51;98834.04;108752;1280;23214;-80
2023/02/24 07:18:03;;;;;;;43.80;19.30;;;;;;;3.83;79.57;98829.23;108603;1283;22559;-86
2023/02/24 07:20:44;;;;;;;47.40;17.70;;;;;;;3.89;79.51;98830.06;108553;1283;24558;-80
2023/02/24 07:23:24;;;;;;;45.00;16.40;;;;;;;3.95;79.52;98827.66;108354;1278;23936;-79
2023/02/24 07:26:16;;;;;;;32.70;15.10;;;;;;;4.02;79.37;98819.57;108970;1261;22602;-82
2023/02/24 07:28:53;;;;;;;39.90;16.10;;;;;;;4.12;79.03;98819.36;108973;1276;22785;-82
2023/02/24 07:31:25;;;;;;;37.40;15.40;;;;;;;4.20;79.03;98816.59;108158;1282;22503;-80
2023/02/24 07:33:56;;;;;;;47.60;16.60;;;;;;;4.27;79.20;98815.36;108002;1280;22726;-81
2023/02/24 07:36:47;;;;;;;49.90;18.80;;;;;;;4.35;79.31;98815.85;108045;1280;22929;-79
2023/02/24 07:39:31;;;;;;;37.40;16.30;;;;;;;4.47;79.38;98814.93;108206;1276;22579;-82
2023/02/24 07:42:12;;;;;;;39.70;15.50;;;;;;;4.57;79.19;98809.38;108163;1278;22562;-83
2023/02/24 07:44:56;;;;;;;52.20;20.50;;;;;;;4.69;79.07;98805.54;108498;1277;22570;-81
2023/02/24 07:47:34;;;;;;;46.90;18.60;;;;;;;4.81;78.92;98806.48;108138;1276;22540;-81
2023/02/24 07:50:17;;;;;;;47.70;18.20;;;;;;;4.88;78.57;98803.52;108296;1277;22543;-81
2023/02/24 07:52:59;;;;;;;52.40;17.80;;;;;;;4.91;78.31;98802.14;108041;1276;22529;-80
2023/02/24 07:55:37;;;;;;;45.40;16.60;;;;;;;4.93;78.00;98796.97;107923;1277;23967;-80
2023/02/24 07:58:11;;;;;;;38.90;16.40;;;;;;;4.91;77.56;98796.81;107285;1280;22629;-79
2023/02/24 08:04:06;;;;;;;39.90;15.70;;;;;;;4.77;77.44;98789.02;107449;1284;25241;-80
2023/02/24 08:06:54;;;;;;;53.40;18.90;;;;;;;4.72;78.18;98787.84;107751;1283;24203;-80
2023/02/24 08:10:22;;;;;;;39.10;18.10;;;;;;;4.73;77.71;98785.42;107797;1283;22541;-78
2023/02/24 08:12:49;;;;;;;52.70;16.70;;;;;;;4.74;78.24;98788.17;107669;1284;22496;-81
2023/02/24 08:15:34;;;;;;;37.60;14.70;;;;;;;4.75;78.40;98785.24;107226;1278;22572;-79
2023/02/24 08:18:22;;;;;;;26.50;12.40;;;;;;;4.76;78.09;98785.06;107143;1284;22527;-79
2023/02/24 08:21:17;;;;;;;29.90;13.60;;;;;;;4.74;78.14;98783.70;107152;1284;22554;-79
2023/02/24 08:23:55;;;;;;;40.00;13.20;;;;;;;4.75;77.54;98781.81;107055;1284;23936;-79
2023/02/24 08:26:43;;;;;;;35.60;15.70;;;;;;;4.72;77.41;98777.18;107092;1284;26747;-79
2023/02/24 08:29:27;;;;;;;37.00;14.90;;;;;;;4.69;78.15;98778.08;107169;1284;22506;-80
2023/02/24 08:32:03;;;;;;;40.90;18.30;;;;;;;4.73;79.21;98779.59;107125;1284;22573;-80
2023/02/24 08:34:43;;;;;;;44.10;17.60;;;;;;;4.75;79.36;98773.23;107130;1281;22552;-79
2023/02/24 08:37:26;;;;;;;39.90;17.60;;;;;;;4.82;80.15;98771.29;107207;1277;24082;-79
2023/02/24 08:43:42;;;;;;;49.40;18.70;;;;;;;4.94;80.12;98758.33;107150;1274;22517;-79
2023/02/24 08:46:31;;;;;;;49.20;19.40;;;;;;;4.97;79.10;98756.23;107066;1276;22530;-79
2023/02/24 08:49:09;;;;;;;42.10;18.60;;;;;;;5.02;78.76;98757.40;107249;1278;25497;-79
2023/02/24 08:51:42;;;;;;;43.30;17.30;;;;;;;5.06;78.99;98753.77;107121;1284;26536;-79
2023/02/24 08:54:33;;;;;;;43.40;14.70;;;;;;;5.09;77.68;98753.39;107189;1283;25521;-81
2023/02/24 08:57:13;;;;;;;37.70;14.80;;;;;;;5.06;77.82;98751.86;107155;1284;22581;-79
2023/02/24 08:59:56;;;;;;;40.90;16.70;;;;;;;5.12;78.50;98752.33;107063;1278;22674;-79
2023/02/24 09:02:28;;;;;;;31.40;14.60;;;;;;;5.20;78.43;98753.46;107023;1284;24372;-79
2023/02/24 09:05:02;;;;;;;37.60;14.20;;;;;;;5.28;78.69;98749.96;107136;1278;22789;-79
2023/02/24 09:07:39;;;;;;;42.90;15.90;;;;;;;5.40;78.71;98752.59;107581;1284;24837;-79
2023/02/24 09:10:16;;;;;;;33.00;13.40;;;;;;;5.51;78.49;98748.52;107164;1284;23850;-81
2023/02/24 09:12:54;;;;;;;38.60;17.70;;;;;;;5.60;78.44;98743.10;106782;1284;22544;-81
2023/02/24 09:15:40;;;;;;;59.30;20.80;;;;;;;5.72;78.36;98741.27;106829;1284;22577;-79
2023/02/24 09:18:17;;;;;;;40.30;17.00;;;;;;;5.84;77.91;98741.98;106943;1277;22667;-79
2023/02/24 09:20:55;;;;;;;37.50;16.80;;;;;;;5.93;77.85;98736.04;107391;1281;25933;-79
2023/02/24 09:23:31;;;;;;;125.00;47.20;;;;;;;6.04;77.91;98733.34;106920;1271;23090;-79
2023/02/24 09:26:09;;;;;;;142.20;57.50;;;;;;;6.20;78.01;98729.52;106905;1278;25440;-79
2023/02/24 09:28:54;;;;;;;67.10;29.30;;;;;;;6.36;77.85;98730.68;106965;1278;25298;-78
2023/02/24 09:31:39;;;;;;;44.10;19.20;;;;;;;6.52;77.06;98728.05;106906;1277;23904;-82
2023/02/24 09:34:17;;;;;;;38.30;16.60;;;;;;;6.63;76.51;98724.77;107044;1278;24220;-79
2023/02/24 09:37:01;;;;;;;41.40;17.20;;;;;;;6.71;75.91;98721.39;107033;1285;22539;-77
2023/02/24 09:42:45;;;;;;;45.30;16.00;;;;;;;6.90;75.11;98726.77;107411;1278;22573;-79
2023/02/24 09:45:36;;;;;;;41.60;17.20;;;;;;;6.90;74.87;98724.36;107155;1277;23553;-79
2023/02/24 09:48:23;;;;;;;50.90;17.70;;;;;;;6.90;74.90;98723.16;107346;1284;23023;-79
2023/02/24 09:51:17;;;;;;;48.40;19.60;;;;;;;6.95;74.90;98721.35;107195;1276;22795;-80
2023/02/24 09:53:55;;;;;;;37.00;16.60;;;;;;;6.96;74.66;98720.66;107060;1278;23157;-81
2023/02/24 09:56:41;;;;;;;31.60;15.80;;;;;;;6.96;74.63;98715.48;107061;1283;24236;-80
2023/02/24 09:59:31;;;;;;;33.90;14.30;;;;;;;6.95;74.27;98713.27;107658;1277;22590;-81
2023/02/24 10:02:42;;;;;;;43.20;15.80;;;;;;;6.93;74.45;98703.98;107059;1276;22527;-81
2023/02/24 10:05:26;;;;;;;32.50;15.80;;;;;;;6.96;74.41;98700.32;107046;1283;22564;-81
2023/02/24 10:07:56;;;;;;;31.30;15.20;;;;;;;6.99;74.55;98695.61;106943;1277;25244;-81
2023/02/24 10:10:34;;;;;;;33.70;14.60;;;;;;;7.03;74.77;98698.14;106910;1284;22562;-81
2023/02/24 10:13:16;;;;;;;32.10;16.00;;;;;;;7.10;74.79;98695.08;106953;1284;24206;-81
2023/02/24 10:18:31;;;;;;;40.00;16.50;;;;;;;7.22;74.80;98680.74;106852;1284;24693;-81
2023/02/24 10:21:29;;;;;;;36.70;16.40;;;;;;;7.29;74.61;98676.66;107329;1282;25301;-79
2023/02/24 10:24:30;;;;;;;32.60;13.80;;;;;;;7.37;73.99;98675.64;107032;1273;22486;-80
2023/02/24 10:27:34;;;;;;;32.40;11.60;;;;;;;7.43;73.57;98672.08;107087;1284;22594;-79
2023/02/24 10:30:45;;;;;;;31.20;10.00;;;;;;;7.48;73.36;98667.85;107139;1284;23907;-78
2023/02/24 10:33:29;;;;;;;22.40;9.60;;;;;;;7.49;72.99;98669.38;107101;1281;22545;-78
2023/02/24 10:36:19;;;;;;;21.70;10.40;;;;;;;7.55;73.31;98663.22;106906;1281;22757;-79
2023/02/24 10:38:54;;;;;;;22.40;10.20;;;;;;;7.63;73.91;98657.20;106878;1279;25426;-79
2023/02/24 10:41:30;;;;;;;26.30;10.80;;;;;;;7.66;74.00;98654.02;107066;1276;24269;-78
2023/02/24 10:44:21;;;;;;;23.70;9.90;;;;;;;7.66;73.92;98650.92;106945;1284;26032;-78
2023/02/24 10:47:16;;;;;;;23.10;11.40;;;;;;;7.71;74.15;98647.39;107084;1277;22529;-79
2023/02/24 10:49:55;;;;;;;27.10;12.00;;;;;;;7.75;74.10;98645.75;107172;1280;22530;-79
2023/02/24 10:52:49;;;;;;;28.70;11.30;;;;;;;7.77;74.11;98641.38;106929;1284;22586;-79
2023/02/24 10:58:48;;;;;;;31.30;11.50;;;;;;;7.81;74.24;98631.48;107678;1278;22530;-84
2023/02/24 11:05:15;;;;;;;30.40;12.00;;;;;;;7.79;74.86;98617.70;107440;1276;22543;-79
2023/02/24 11:10:56;;;;;;;32.90;12.20;;;;;;;7.68;75.68;98606.03;107280;1284;23796;-79
2023/02/24 11:19:59;;;;;;;26.20;11.50;;;;;;;7.55;76.39;98595.61;107227;1276;22530;-79
2023/02/24 11:22:45;;;;;;;27.20;11.90;;;;;;;7.52;77.39;98592.23;107482;1274;22478;-79
2023/02/24 11:25:40;;;;;;;29.20;12.00;;;;;;;7.51;77.94;98590.35;108180;1269;24223;-80
2023/02/24 11:28:54;;;;;;;26.40;11.10;;;;;;;7.50;78.70;98588.48;108089;1277;22665;-79
2023/02/24 11:32:24;;;;;;;26.70;12.40;;;;;;;7.57;78.37;98584.73;107793;1283;22559;-81
2023/02/24 11:35:34;;;;;;;31.50;13.20;;;;;;;7.59;78.67;98579.67;107415;1283;22609;-79
2023/02/24 11:38:32;;;;;;;26.70;12.50;;;;;;;7.66;78.42;98574.17;107148;1281;24262;-79
2023/02/24 11:41:18;;;;;;;33.40;13.50;;;;;;;7.69;78.27;98570.83;107155;1284;22534;-77
2023/02/24 11:44:40;;;;;;;25.10;13.10;;;;;;;7.75;77.95;98567.60;107845;1281;22534;-79
2023/02/24 11:47:37;;;;;;;30.20;13.30;;;;;;;7.72;78.15;98567.14;107225;1278;24101;-78
2023/02/24 11:51:03;;;;;;;33.60;14.60;;;;;;;7.81;77.64;98562.29;107134;1284;24037;-79
2023/02/24 11:54:07;;;;;;;35.00;14.20;;;;;;;7.84;77.92;98549.80;106922;1284;24789;-80
2023/02/24 11:56:57;;;;;;;32.00;14.70;;;;;;;7.95;77.26;98544.55;106850;1281;22640;-81
2023/02/24 12:00:06;;;;;;;27.30;13.10;;;;;;;8.00;77.63;98535.61;106985;1284;22536;-80
2023/02/24 12:03:45;;;;;;;30.50;12.40;;;;;;;8.15;77.00;98530.26;102696;1262;5857419;-77
2023/02/24 12:06:53;;;;;;;32.30;12.30;;;;;;;8.26;76.76;98529.83;107239;1278;24226;-80
2023/02/24 12:09:38;;;;;;;35.90;13.00;;;;;;;8.37;76.46;98521.61;107067;1277;25418;-79
2023/02/24 12:12:45;;;;;;;23.20;10.90;;;;;;;8.48;75.75;98520.66;107563;1284;25328;-80
2023/02/24 12:15:50;;;;;;;28.20;12.70;;;;;;;8.62;75.52;98511.32;106976;1278;22554;-78
2023/02/24 12:18:47;;;;;;;34.60;11.60;;;;;;;8.73;75.06;98506.36;107124;1284;24266;-78
2023/02/24 12:21:33;;;;;;;29.80;11.50;;;;;;;8.87;74.75;98504.77;107035;1284;24188;-81
2023/02/24 12:24:15;;;;;;;25.90;10.50;;;;;;;8.93;74.31;98497.67;107071;1278;22608;-80
2023/02/24 12:27:26;;;;;;;23.60;9.50;;;;;;;9.18;75.01;98493.53;107030;1274;22783;-79
2023/02/24 12:31:03;;;;;;;21.50;10.10;;;;;;;9.49;73.20;98491.23;107902;1278;22541;-78
2023/02/24 12:34:12;;;;;;;22.30;9.80;;;;;;;9.62;72.80;98489.44;106600;1292;22574;-78
2023/02/24 12:37:18;;;;;;;28.20;10.90;;;;;;;9.70;72.10;98490.07;106602;1292;23706;-78
2023/02/24 12:40:44;;;;;;;24.30;10.10;;;;;;;9.64;71.19;98485.23;107065;1284;22538;-79
2023/02/24 12:43:39;;;;;;;27.20;10.70;;;;;;;9.69;71.47;98483.16;107041;1278;22587;-80
2023/02/24 12:46:28;;;;;;;24.90;10.80;;;;;;;9.73;71.34;98480.79;107080;1273;24220;-79
2023/02/24 12:49:10;;;;;;;28.10;11.70;;;;;;;9.74;70.60;98470.73;107122;1276;22617;-80
2023/02/24 12:52:09;;;;;;;27.70;11.90;;;;;;;9.78;70.49;98460.93;107026;1284;22530;-80
2023/02/24 12:55:03;;;;;;;25.30;11.20;;;;;;;9.79;70.45;98457.27;107086;1284;24224;-81
2023/02/24 12:58:11;;;;;;;27.90;11.30;;;;;;;9.78;70.05;98458.14;107017;1284;22567;-79
2023/02/24 13:01:02;;;;;;;24.90;10.30;;;;;;;9.85;70.03;98459.98;107078;1284;22545;-81
2023/02/24 13:03:56;;;;;;;23.00;11.80;;;;;;;10.11;70.25;98455.51;107826;1284;22616;-78
2023/02/24 13:07:08;;;;;;;27.20;11.40;;;;;;;10.57;70.62;98451.91;107146;1278;22532;-78
2023/02/24 13:09:59;;;;;;;21.40;10.40;;;;;;;10.99;68.73;98447.62;107004;1273;22574;-79
2023/02/24 13:12:43;;;;;;;20.50;10.00;;;;;;;11.19;67.76;98434.19;107061;1262;24237;-78
2023/02/24 13:15:20;;;;;;;24.90;10.40;;;;;;;11.54;68.66;98429.89;107011;1284;22682;-78
2023/02/24 13:17:50;;;;;;;22.70;10.40;;;;;;;11.85;66.83;98431.45;107412;1283;22536;-78
2023/02/24 13:20:30;;;;;;;20.30;9.60;;;;;;;11.98;66.53;98429.38;107110;1277;25422;-79